Archival Weather

Norman Y Mineta San Jose Intl

San Jose, California (KSJC)

Report from: Sunday, January 28, 2024 2:53 AM PST
Current time: Friday, June 14, 2024 4:07 AM PDT

Current weather – Weather history – Daily summaries
Weather forecast

Temperature13.9°C (57.0°F)
Dew point10.0°C (50.0°F)
Winds 3 kts (1.5 m/s, 3.5 mph) North-Northeast (30°)
Visibility10 mi. (16.1 km)
Clouds Sky clear
Altimeter30.19 in.Hg (1022 mB)
Relative humidity77 %
Density altitude-259 ft. (-79 m)
Sea-level pressure102.2 kPa (1022 mB, 30.19 in.Hg)
Remarks Fully automated report
Automated weather observing station with precipitation discriminator
Flight conditions Visual Meteorological Conditions
Raw dataKSJC 281053Z AUTO 03003KT 10SM CLR 14/10 A3019 RMK AO2 SLP222 T01390100
An error has occurred. This application may no longer respond until reloaded. Reload 🗙